^^
Grace C. Lehan Memorial Weather Station Historical Data
Daily Summary for February 9, 2022 Units:  Both    English   Metric
Daily Weekly Monthly Yearly
  High: Low: Average:
Temperature: 39.6 °F /  4.2 °C 17.7 °F /  -7.9 °C 33.2 °F /  0.7 °C
Dew Point: 36.7 °F /  2.6 °C 9.6 °F /  -12.4 °C 27.2 °F /  -2.7 °C
Humidity: 94% 65.8% 79%
Wind Speed: 7.5mph /  12.1km/h - 1.6mph /  2.6km/h
Wind Gust: 18mph /  29km/h - -
Wind- - SW
Pressure: 30.50 in /  1032.7 hPa 29.86 in /  1011.1 hPa -
Precipitation: 0.00 in /  0 mm    
 
 
Tabular Data for February 9, 2022
Time Temperature Dew Point Pressure Wind Wind Speed Wind Gust Humidity Rainfall Rate (Hourly) solar
00:04 18.6 °F /  -7.4 °C 10.1 °F /  -12.2 °C 30.50in /  1032.7hPa Calm     69% 0.00in /  0mm 0 W/m2
00:09 18.5 °F /  -7.5 °C 10 °F /  -12.2 °C 30.50in /  1032.7hPa Calm     69% 0.00in /  0mm 0 W/m2
00:14 18.4 °F /  -7.6 °C 10 °F /  -12.2 °C 30.50in /  1032.7hPa Calm     69% 0.00in /  0mm 0 W/m2
00:19 18.3 °F /  -7.6 °C 9.9 °F /  -12.3 °C 30.50in /  1032.7hPa Calm     69% 0.00in /  0mm 0 W/m2
00:24 18.3 °F /  -7.6 °C 9.9 °F /  -12.3 °C 30.49in /  1032.4hPa Calm     69% 0.00in /  0mm 0 W/m2
00:29 18.3 °F /  -7.6 °C 9.8 °F /  -12.3 °C 30.49in /  1032.4hPa Calm     69% 0.00in /  0mm 0 W/m2
00:34 18.4 °F /  -7.6 °C 9.7 °F /  -12.4 °C 30.49in /  1032.4hPa Calm     68.4% 0.00in /  0mm 0 W/m2
00:39 18.4 °F /  -7.6 °C 9.6 °F /  -12.4 °C 30.49in /  1032.4hPa Calm     68% 0.00in /  0mm 0 W/m2
00:44 18.5 °F /  -7.5 °C 9.7 °F /  -12.4 °C 30.49in /  1032.4hPa Calm     68% 0.00in /  0mm 0 W/m2
00:49 18.5 °F /  -7.5 °C 9.8 °F /  -12.3 °C 30.48in /  1032.1hPa Calm     68% 0.00in /  0mm 0 W/m2
00:54 18.6 °F /  -7.4 °C 9.8 °F /  -12.3 °C 30.47in /  1031.7hPa Calm     68% 0.00in /  0mm 0 W/m2
00:59 18.6 °F /  -7.4 °C 10.1 °F /  -12.2 °C 30.48in /  1032.1hPa Calm     69% 0.00in /  0mm 0 W/m2
01:04 18.5 °F /  -7.5 °C 10.1 °F /  -12.2 °C 30.48in /  1032.1hPa Calm     69% 0.00in /  0mm 0 W/m2
01:09 18.4 °F /  -7.6 °C 10 °F /  -12.2 °C 30.48in /  1032.1hPa Calm     69% 0.00in /  0mm 0 W/m2
01:14 18.2 °F /  -7.7 °C 9.8 °F /  -12.3 °C 30.48in /  1032.1hPa Calm     69% 0.00in /  0mm 0 W/m2
01:19 18.1 °F /  -7.7 °C 9.6 °F /  -12.4 °C 30.48in /  1032.1hPa Calm     69% 0.00in /  0mm 0 W/m2
01:24 17.9 °F /  -7.8 °C 9.8 °F /  -12.3 °C 30.48in /  1032.1hPa Calm     69.8% 0.00in /  0mm 0 W/m2
01:29 17.8 °F /  -7.9 °C 9.7 °F /  -12.4 °C 30.47in /  1031.7hPa Calm     70.2% 0.00in /  0mm 0 W/m2
01:34 17.7 °F /  -7.9 °C 9.9 °F /  -12.3 °C 30.47in /  1031.7hPa Calm     71% 0.00in /  0mm 0 W/m2
01:39 17.7 °F /  -7.9 °C 9.9 °F /  -12.3 °C 30.48in /  1032.1hPa Calm     71% 0.00in /  0mm 0 W/m2
01:44 17.7 °F /  -7.9 °C 10 °F /  -12.2 °C 30.48in /  1032.1hPa Calm     71% 0.00in /  0mm 0 W/m2
01:49 17.9 °F /  -7.8 °C 10.4 °F /  -12 °C 30.49in /  1032.4hPa Calm     71.9% 0.00in /  0mm 0 W/m2
01:54 17.9 °F /  -7.8 °C 10.7 °F /  -11.8 °C 30.49in /  1032.4hPa Calm     72.9% 0.00in /  0mm 0 W/m2
01:59 17.9 °F /  -7.8 °C 10.7 °F /  -11.8 °C 30.49in /  1032.4hPa Calm     73% 0.00in /  0mm 0 W/m2
02:04 17.9 °F /  -7.8 °C 10.7 °F /  -11.8 °C 30.49in /  1032.4hPa Calm     73% 0.00in /  0mm 0 W/m2
02:09 17.9 °F /  -7.8 °C 10.9 °F /  -11.7 °C 30.48in /  1032.1hPa Calm     73.5% 0.00in /  0mm 0 W/m2
02:14 18 °F /  -7.8 °C 11.1 °F /  -11.6 °C 30.47in /  1031.7hPa Calm     74% 0.00in /  0mm 0 W/m2
02:19 18.1 °F /  -7.7 °C 11.2 °F /  -11.6 °C 30.47in /  1031.7hPa Calm     74% 0.00in /  0mm 0 W/m2
02:24 18.2 °F /  -7.7 °C 11.3 °F /  -11.5 °C 30.47in /  1031.7hPa Calm     74% 0.00in /  0mm 0 W/m2
02:29 18.3 °F /  -7.6 °C 11.4 °F /  -11.4 °C 30.47in /  1031.7hPa Calm     74% 0.00in /  0mm 0 W/m2
02:34 18.5 °F /  -7.5 °C 11.8 °F /  -11.2 °C 30.47in /  1031.7hPa Calm     74.6% 0.00in /  0mm 0 W/m2
02:39 18.8 °F /  -7.3 °C 12.2 °F /  -11 °C 30.46in /  1031.4hPa Calm     75% 0.00in /  0mm 0 W/m2
02:44 19.3 °F /  -7.1 °C 12.3 °F /  -10.9 °C 30.45in /  1031hPa Calm     73.8% 0.00in /  0mm 0 W/m2
02:49 19.9 °F /  -6.7 °C 12.6 °F /  -10.8 °C 30.45in /  1031hPa Calm     72.8% 0.00in /  0mm 0 W/m2
02:54 20.6 °F /  -6.3 °C 13.1 °F /  -10.5 °C 30.44in /  1030.7hPa Calm     72.2% 0.00in /  0mm 0 W/m2
02:59 21.2 °F /  -6 °C 13.8 °F /  -10.1 °C 30.44in /  1030.7hPa Calm     72.5% 0.00in /  0mm 0 W/m2
03:04 21.6 °F /  -5.8 °C 14 °F /  -10 °C 30.44in /  1030.7hPa Calm     72% 0.00in /  0mm 0 W/m2
03:09 21.8 °F /  -5.7 °C 14.1 °F /  -9.9 °C 30.44in /  1030.7hPa Calm     72% 0.00in /  0mm 0 W/m2
03:14 21.8 °F /  -5.7 °C 14.3 °F /  -9.8 °C 30.44in /  1030.7hPa Calm     72.5% 0.00in /  0mm 0 W/m2
03:19 21.8 °F /  -5.7 °C 14.2 °F /  -9.9 °C 30.43in /  1030.4hPa Calm     72% 0.00in /  0mm 0 W/m2
03:24 21.8 °F /  -5.7 °C 14.2 °F /  -9.9 °C 30.43in /  1030.4hPa Calm     72% 0.00in /  0mm 0 W/m2
03:29 21.9 °F /  -5.6 °C 14.3 °F /  -9.8 °C 30.43in /  1030.4hPa Calm     72% 0.00in /  0mm 0 W/m2
03:34 22.1 °F /  -5.5 °C 14.7 °F /  -9.6 °C 30.42in /  1030hPa Calm     72.7% 0.00in /  0mm 0 W/m2
03:39 22.5 °F /  -5.3 °C 15.1 °F /  -9.4 °C 30.42in /  1030hPa Calm   1mph /  1.6km/h 73% 0.00in /  0mm 0 W/m2
03:44 22.9 °F /  -5.1 °C 15.5 °F /  -9.2 °C 30.41in /  1029.7hPa Calm   1mph /  1.6km/h 73% 0.00in /  0mm 0 W/m2
03:49 23.3 °F /  -4.8 °C 16 °F /  -8.9 °C 30.41in /  1029.7hPa Calm   1mph /  1.6km/h 73% 0.00in /  0mm 0 W/m2
03:54 23.7 °F /  -4.6 °C 16.3 °F /  -8.7 °C 30.41in /  1029.7hPa Calm   1mph /  1.6km/h 73% 0.00in /  0mm 0 W/m2
03:59 23.9 °F /  -4.5 °C 16.5 °F /  -8.6 °C 30.41in /  1029.7hPa Calm   1mph /  1.6km/h 73% 0.00in /  0mm 0 W/m2
04:00 24 °F /  -4.4 °C 16.6 °F /  -8.6 °C 30.40in /  1029.3hPa Calm   1mph /  1.6km/h 73% 0.00in /  0mm 0 W/m2
04:09 24.3 °F /  -4.3 °C 16.9 °F /  -8.4 °C 30.41in /  1029.7hPa Calm     73% 0.00in /  0mm 0 W/m2
04:14 24.4 °F /  -4.2 °C 16.8 °F /  -8.4 °C 30.40in /  1029.3hPa Calm   1mph /  1.6km/h 72.4% 0.00in /  0mm 0 W/m2
04:19 24.6 °F /  -4.1 °C 16.8 °F /  -8.4 °C 30.40in /  1029.3hPa NE 0.4mph /  0.6km/h 3mph /  4.8km/h 71.6% 0.00in /  0mm 0 W/m2
04:24 24.9 °F /  -3.9 °C 16.8 °F /  -8.4 °C 30.39in /  1029hPa NE 0.3mph /  0.5km/h 3mph /  4.8km/h 71% 0.00in /  0mm 0 W/m2
04:29 25.2 °F /  -3.8 °C 17.2 °F /  -8.2 °C 30.38in /  1028.7hPa NE 0.2mph /  0.3km/h 3mph /  4.8km/h 71% 0.00in /  0mm 0 W/m2
04:34 25.6 °F /  -3.6 °C 17.8 °F /  -7.9 °C 30.38in /  1028.7hPa NE 0.1mph /  0.2km/h 3mph /  4.8km/h 71.8% 0.00in /  0mm 0 W/m2
04:39 25.9 °F /  -3.4 °C 17.6 °F /  -8 °C 30.37in /  1028.3hPa Calm   1mph /  1.6km/h 70.3% 0.00in /  0mm 0 W/m2
04:44 26.1 °F /  -3.3 °C 17.7 °F /  -7.9 °C 30.37in /  1028.3hPa Calm   1mph /  1.6km/h 70% 0.00in /  0mm 0 W/m2
04:49 26.2 °F /  -3.2 °C 17.8 °F /  -7.9 °C 30.37in /  1028.3hPa Calm   1mph /  1.6km/h 70% 0.00in /  0mm 0 W/m2
04:54 26.3 °F /  -3.2 °C 18 °F /  -7.8 °C 30.37in /  1028.3hPa NE 0.4mph /  0.6km/h 4mph /  6.4km/h 70.4% 0.00in /  0mm 0 W/m2
04:59 26.3 °F /  -3.2 °C 18.2 °F /  -7.7 °C 30.36in /  1028hPa NE 0.5mph /  0.8km/h 4mph /  6.4km/h 71% 0.00in /  0mm 0 W/m2
05:04 26.4 °F /  -3.1 °C 18.3 °F /  -7.6 °C 30.36in /  1028hPa NE 1mph /  1.6km/h 4mph /  6.4km/h 71% 0.00in /  0mm 0 W/m2
05:09 26.6 °F /  -3 °C 18.7 °F /  -7.4 °C 30.36in /  1028hPa NE 1.2mph /  1.9km/h 4mph /  6.4km/h 71.4% 0.00in /  0mm 0 W/m2
05:14 27 °F /  -2.8 °C 19.1 °F /  -7.2 °C 30.35in /  1027.7hPa NE 0.8mph /  1.3km/h 4mph /  6.4km/h 72% 0.00in /  0mm 0 W/m2
05:19 27.5 °F /  -2.5 °C 19.8 °F /  -6.8 °C 30.34in /  1027.3hPa ENE 1.9mph /  3.1km/h 7mph /  11.3km/h 72.4% 0.00in /  0mm 0 W/m2
05:24 28 °F /  -2.2 °C 20.2 °F /  -6.6 °C 30.35in /  1027.7hPa SW 1.3mph /  2.1km/h 7mph /  11.3km/h 72% 0.00in /  0mm 0 W/m2
05:29 28.6 °F /  -1.9 °C 20.7 °F /  -6.3 °C 30.35in /  1027.7hPa SW 1.8mph /  2.9km/h 10mph /  16.1km/h 72% 0.00in /  0mm 0 W/m2
05:34 29.2 °F /  -1.6 °C 21.1 °F /  -6.1 °C 30.34in /  1027.3hPa SW 1.8mph /  2.9km/h 10mph /  16.1km/h 71.5% 0.00in /  0mm 0 W/m2
05:39 29.7 °F /  -1.3 °C 21.5 °F /  -5.8 °C 30.33in /  1027hPa SW 1.8mph /  2.9km/h 4mph /  6.4km/h 71% 0.00in /  0mm 0 W/m2
05:44 30.1 °F /  -1.1 °C 21.9 °F /  -5.6 °C 30.33in /  1027hPa SW 2.2mph /  3.5km/h 9mph /  14.5km/h 71% 0.00in /  0mm 0 W/m2
05:49 30.4 °F /  -0.9 °C 22.1 °F /  -5.5 °C 30.32in /  1026.6hPa SW 1.8mph /  2.9km/h 9mph /  14.5km/h 71% 0.00in /  0mm 0 W/m2
05:54 30.6 °F /  -0.8 °C 22.3 °F /  -5.4 °C 30.32in /  1026.6hPa SW 3.5mph /  5.6km/h 13mph /  20.9km/h 71% 0.00in /  0mm 0 W/m2
05:59 30.8 °F /  -0.7 °C 22.2 °F /  -5.4 °C 30.32in /  1026.6hPa SW 2.3mph /  3.7km/h 13mph /  20.9km/h 70% 0.00in /  0mm 0 W/m2
06:04 31 °F /  -0.6 °C 22.4 °F /  -5.3 °C 30.32in /  1026.6hPa SW 2.3mph /  3.7km/h 13mph /  20.9km/h 70.1% 0.00in /  0mm 0 W/m2
06:09 31.1 °F /  -0.5 °C 22.4 °F /  -5.3 °C 30.32in /  1026.6hPa SW 2.1mph /  3.4km/h 9mph /  14.5km/h 70% 0.00in /  0mm 0 W/m2
06:14 31.2 °F /  -0.4 °C 22.5 °F /  -5.3 °C 30.32in /  1026.6hPa SW 1.5mph /  2.4km/h 9mph /  14.5km/h 70% 0.00in /  0mm 0 W/m2
06:19 31.3 °F /  -0.4 °C 22.6 °F /  -5.2 °C 30.32in /  1026.6hPa SW 2.1mph /  3.4km/h 9mph /  14.5km/h 70% 0.00in /  0mm 0 W/m2
06:24 31.4 °F /  -0.3 °C 22.4 °F /  -5.3 °C 30.32in /  1026.6hPa SW 2.9mph /  4.7km/h 9mph /  14.5km/h 69.1% 0.00in /  0mm 0 W/m2
06:29 31.5 °F /  -0.3 °C 22.5 °F /  -5.3 °C 30.32in /  1026.6hPa SW 3.1mph /  5km/h 10mph /  16.1km/h 69% 0.00in /  0mm 0 W/m2
06:34 31.6 °F /  -0.2 °C 22.4 °F /  -5.3 °C 30.32in /  1026.6hPa SW 2.2mph /  3.5km/h 10mph /  16.1km/h 68.5% 0.00in /  0mm 0 W/m2
06:39 31.7 °F /  -0.2 °C 22.5 °F /  -5.3 °C 30.31in /  1026.3hPa SW 2.4mph /  3.9km/h 9mph /  14.5km/h 68.5% 0.00in /  0mm 0 W/m2
06:44 31.8 °F /  -0.1 °C 22.5 °F /  -5.3 °C 30.31in /  1026.3hPa SW 2.7mph /  4.3km/h 9mph /  14.5km/h 68% 0.00in /  0mm 0 W/m2
06:49 31.9 °F /  -0.1 °C 22.8 °F /  -5.1 °C 30.30in /  1026hPa SW 2.9mph /  4.7km/h 9mph /  14.5km/h 68.5% 0.00in /  0mm 0 W/m2
06:54 32 °F /  0 °C 22.9 °F /  -5.1 °C 30.30in /  1026hPa SSW 1.6mph /  2.6km/h 9mph /  14.5km/h 68.5% 0.00in /  0mm 0 W/m2
06:59 32.1 °F /  0.1 °C 23.1 °F /  -4.9 °C 30.29in /  1025.6hPa SSW 1.9mph /  3.1km/h 9mph /  14.5km/h 69% 0.00in /  0mm 0 W/m2
07:04 32.2 °F /  0.1 °C 23.2 °F /  -4.9 °C 30.28in /  1025.3hPa SSW 1mph /  1.6km/h 9mph /  14.5km/h 69% 0.00in /  0mm 0 W/m2
07:09 32.3 °F /  0.2 °C 23.3 °F /  -4.8 °C 30.28in /  1025.3hPa SW 1.8mph /  2.9km/h 7mph /  11.3km/h 69% 0.00in /  0mm 0 W/m2
07:14 32.3 °F /  0.2 °C 23.3 °F /  -4.8 °C 30.28in /  1025.3hPa SW 2.2mph /  3.5km/h 7mph /  11.3km/h 69% 0.00in /  0mm 0 W/m2
07:19 32.4 °F /  0.2 °C 23.4 °F /  -4.8 °C 30.29in /  1025.6hPa SW 3mph /  4.8km/h 7mph /  11.3km/h 69% 0.00in /  0mm 0 W/m2
07:24 32.5 °F /  0.3 °C 23.5 °F /  -4.7 °C 30.29in /  1025.6hPa SW 1.7mph /  2.7km/h 7mph /  11.3km/h 69% 0.00in /  0mm 0 W/m2
07:29 32.6 °F /  0.3 °C 23.6 °F /  -4.7 °C 30.28in /  1025.3hPa SW 1.4mph /  2.3km/h 10mph /  16.1km/h 69.2% 0.00in /  0mm 0 W/m2
07:34 32.7 °F /  0.4 °C 23.9 °F /  -4.5 °C 30.28in /  1025.3hPa SW 3.9mph /  6.3km/h 10mph /  16.1km/h 69.8% 0.00in /  0mm 5 W/m2
07:39 32.8 °F /  0.4 °C 24.1 °F /  -4.4 °C 30.27in /  1024.9hPa SW 1.8mph /  2.9km/h 10mph /  16.1km/h 70% 0.00in /  0mm 11 W/m2
07:44 32.8 °F /  0.4 °C 24.1 °F /  -4.4 °C 30.26in /  1024.6hPa SW 2.3mph /  3.7km/h 10mph /  16.1km/h 70% 0.00in /  0mm 11 W/m2
07:49 32.9 °F /  0.5 °C 24.2 °F /  -4.3 °C 30.26in /  1024.6hPa SSW 1.9mph /  3.1km/h 10mph /  16.1km/h 70% 0.00in /  0mm 11 W/m2
07:54 33 °F /  0.6 °C 24.3 °F /  -4.3 °C 30.25in /  1024.3hPa SSW 2mph /  3.2km/h 10mph /  16.1km/h 70% 0.00in /  0mm 11 W/m2
07:59 33.1 °F /  0.6 °C 24.6 °F /  -4.1 °C 30.25in /  1024.3hPa SSW 1.9mph /  3.1km/h 10mph /  16.1km/h 70.8% 0.00in /  0mm 14 W/m2
08:00 33.1 °F /  0.6 °C 24.7 °F /  -4.1 °C 30.25in /  1024.3hPa SW 5mph /  8km/h 10mph /  16.1km/h 71% 0.00in /  0mm 14 W/m2
08:09 33.2 °F /  0.7 °C 24.8 °F /  -4 °C 30.23in /  1023.6hPa SSW 1.6mph /  2.6km/h 5mph /  8km/h 70.9% 0.00in /  0mm 18 W/m2
08:14 33.3 °F /  0.7 °C 24.9 °F /  -3.9 °C 30.23in /  1023.6hPa SSW 1.4mph /  2.3km/h 5mph /  8km/h 71% 0.00in /  0mm 18 W/m2
08:19 33.4 °F /  0.8 °C 25.1 °F /  -3.8 °C 30.24in /  1023.9hPa SSW 1.6mph /  2.6km/h 6mph /  9.7km/h 71.3% 0.00in /  0mm 16 W/m2
08:24 33.4 °F /  0.8 °C 25.3 °F /  -3.7 °C 30.24in /  1023.9hPa SW 1.6mph /  2.6km/h 6mph /  9.7km/h 71.6% 0.00in /  0mm 18 W/m2
08:29 33.5 °F /  0.8 °C 25.5 °F /  -3.6 °C 30.23in /  1023.6hPa SW 2.3mph /  3.7km/h 7mph /  11.3km/h 72% 0.00in /  0mm 23 W/m2
08:34 33.6 °F /  0.9 °C 25.7 °F /  -3.5 °C 30.23in /  1023.6hPa SW 2.1mph /  3.4km/h 10mph /  16.1km/h 72.2% 0.00in /  0mm 33 W/m2
08:39 33.8 °F /  1 °C 26.1 °F /  -3.3 °C 30.23in /  1023.6hPa SW 2.3mph /  3.7km/h 10mph /  16.1km/h 73% 0.00in /  0mm 35 W/m2
08:44 33.9 °F /  1.1 °C 26.2 °F /  -3.2 °C 30.23in /  1023.6hPa SW 2mph /  3.2km/h 10mph /  16.1km/h 73% 0.00in /  0mm 39 W/m2
08:49 34.1 °F /  1.2 °C 26.4 °F /  -3.1 °C 30.24in /  1023.9hPa SW 3.7mph /  6km/h 11mph /  17.7km/h 73% 0.00in /  0mm 35 W/m2
08:54 34.3 °F /  1.3 °C 26.8 °F /  -2.9 °C 30.23in /  1023.6hPa SW 3.1mph /  5km/h 12mph /  19.3km/h 73.7% 0.00in /  0mm 30 W/m2
08:59 34.5 °F /  1.4 °C 27.1 °F /  -2.7 °C 30.23in /  1023.6hPa SW 3.9mph /  6.3km/h 12mph /  19.3km/h 74% 0.00in /  0mm 32 W/m2
09:04 34.7 °F /  1.5 °C 27.3 °F /  -2.6 °C 30.23in /  1023.6hPa SW 4.4mph /  7.1km/h 13mph /  20.9km/h 74% 0.00in /  0mm 32 W/m2
09:09 34.9 °F /  1.6 °C 27.8 °F /  -2.3 °C 30.23in /  1023.6hPa SW 3.5mph /  5.6km/h 13mph /  20.9km/h 75% 0.00in /  0mm 26 W/m2
09:14 35 °F /  1.7 °C 27.7 °F /  -2.4 °C 30.23in /  1023.6hPa SW 4.7mph /  7.6km/h 13mph /  20.9km/h 74.4% 0.00in /  0mm 35 W/m2
09:19 35.2 °F /  1.8 °C 28 °F /  -2.2 °C 30.23in /  1023.6hPa SW 4.8mph /  7.7km/h 13mph /  20.9km/h 74.7% 0.00in /  0mm 37 W/m2
09:24 35.4 °F /  1.9 °C 28.2 °F /  -2.1 °C 30.23in /  1023.6hPa SW 4.5mph /  7.2km/h 13mph /  20.9km/h 74.8% 0.00in /  0mm 39 W/m2
09:29 35.5 °F /  1.9 °C 28.4 °F /  -2 °C 30.23in /  1023.6hPa SW 6.5mph /  10.5km/h 16mph /  25.7km/h 75% 0.00in /  0mm 49 W/m2
09:34 35.7 °F /  2.1 °C 28.5 °F /  -1.9 °C 30.23in /  1023.6hPa SW 4mph /  6.4km/h 16mph /  25.7km/h 75% 0.00in /  0mm 58 W/m2
09:39 35.8 °F /  2.1 °C 28.7 °F /  -1.8 °C 30.22in /  1023.2hPa SW 5.9mph /  9.5km/h 13mph /  20.9km/h 75% 0.00in /  0mm 58 W/m2
09:44 35.9 °F /  2.2 °C 28.8 °F /  -1.8 °C 30.22in /  1023.2hPa SW 3mph /  4.8km/h 13mph /  20.9km/h 75% 0.00in /  0mm 65 W/m2
09:49 36 °F /  2.2 °C 28.9 °F /  -1.7 °C 30.22in /  1023.2hPa SW 4.5mph /  7.2km/h 18mph /  29km/h 75.1% 0.00in /  0mm 72 W/m2
09:54 36.1 °F /  2.3 °C 29.4 °F /  -1.4 °C 30.22in /  1023.2hPa SW 3.5mph /  5.6km/h 18mph /  29km/h 76.3% 0.00in /  0mm 74 W/m2
09:59 36.1 °F /  2.3 °C 29.5 °F /  -1.4 °C 30.21in /  1022.9hPa SW 3.5mph /  5.6km/h 18mph /  29km/h 76.6% 0.00in /  0mm 63 W/m2
10:04 36.1 °F /  2.3 °C 29.6 °F /  -1.3 °C 30.21in /  1022.9hPa SW 4.9mph /  7.9km/h 18mph /  29km/h 77% 0.00in /  0mm 63 W/m2
10:09 36.1 °F /  2.3 °C 29.6 °F /  -1.3 °C 30.21in /  1022.9hPa SW 3.8mph /  6.1km/h 14mph /  22.5km/h 77% 0.00in /  0mm 63 W/m2
10:14 36 °F /  2.2 °C 29.8 °F /  -1.2 °C 30.21in /  1022.9hPa SW 3.7mph /  6km/h 14mph /  22.5km/h 77.9% 0.00in /  0mm 70 W/m2
10:19 36 °F /  2.2 °C 29.9 °F /  -1.2 °C 30.20in /  1022.6hPa SW 1.5mph /  2.4km/h 14mph /  22.5km/h 78.2% 0.00in /  0mm 72 W/m2
10:24 36 °F /  2.2 °C 30.1 °F /  -1.1 °C 30.20in /  1022.6hPa SW 2.8mph /  4.5km/h 14mph /  22.5km/h 79% 0.00in /  0mm 120 W/m2
10:29 36 °F /  2.2 °C 30.2 °F /  -1 °C 30.19in /  1022.2hPa SW 2.3mph /  3.7km/h 14mph /  22.5km/h 79% 0.00in /  0mm 120 W/m2
10:34 36.2 °F /  2.3 °C 30.3 °F /  -0.9 °C 30.19in /  1022.2hPa SW 1.3mph /  2.1km/h 14mph /  22.5km/h 79% 0.00in /  0mm 100 W/m2
10:39 36.3 °F /  2.4 °C 30.4 °F /  -0.9 °C 30.17in /  1021.6hPa SW 1.1mph /  1.8km/h 7mph /  11.3km/h 79% 0.00in /  0mm 90 W/m2
10:44 36.4 °F /  2.4 °C 30.4 °F /  -0.9 °C 30.17in /  1021.6hPa SW 1.8mph /  2.9km/h 7mph /  11.3km/h 78.8% 0.00in /  0mm 102 W/m2
10:49 36.5 °F /  2.5 °C 30.4 °F /  -0.9 °C 30.16in /  1021.2hPa SW 2mph /  3.2km/h 8mph /  12.9km/h 78.6% 0.00in /  0mm 95 W/m2
10:54 36.5 °F /  2.5 °C 30.1 °F /  -1.1 °C 30.15in /  1020.9hPa SSW 1.8mph /  2.9km/h 8mph /  12.9km/h 77.2% 0.00in /  0mm 70 W/m2
10:59 36.6 °F /  2.6 °C 30 °F /  -1.1 °C 30.15in /  1020.9hPa SSW 2.1mph /  3.4km/h 8mph /  12.9km/h 76.7% 0.00in /  0mm 104 W/m2
11:04 36.8 °F /  2.7 °C 29.7 °F /  -1.3 °C 30.15in /  1020.9hPa SSW 2.7mph /  4.3km/h 8mph /  12.9km/h 75.3% 0.00in /  0mm 107 W/m2
11:09 37 °F /  2.8 °C 29.5 °F /  -1.4 °C 30.14in /  1020.5hPa SW 2.5mph /  4km/h 7mph /  11.3km/h 74.2% 0.00in /  0mm 88 W/m2
11:14 37.1 °F /  2.8 °C 29.6 °F /  -1.3 °C 30.14in /  1020.5hPa SW 1.6mph /  2.6km/h 7mph /  11.3km/h 74% 0.00in /  0mm 100 W/m2
11:19 37.3 °F /  2.9 °C 29.5 °F /  -1.4 °C 30.13in /  1020.2hPa SW 2.5mph /  4km/h 7mph /  11.3km/h 73.2% 0.00in /  0mm 109 W/m2
11:24 37.4 °F /  3 °C 29.5 °F /  -1.4 °C 30.12in /  1019.9hPa SW 2.4mph /  3.9km/h 7mph /  11.3km/h 72.8% 0.00in /  0mm 113 W/m2
11:29 37.6 °F /  3.1 °C 29.4 °F /  -1.4 °C 30.12in /  1019.9hPa SW 2.2mph /  3.5km/h 7mph /  11.3km/h 72% 0.00in /  0mm 95 W/m2
11:34 37.8 °F /  3.2 °C 29.2 °F /  -1.6 °C 30.11in /  1019.5hPa SW 2.4mph /  3.9km/h 9mph /  14.5km/h 71% 0.00in /  0mm 95 W/m2
11:39 37.9 °F /  3.3 °C 29 °F /  -1.7 °C 30.11in /  1019.5hPa SW 2.4mph /  3.9km/h 9mph /  14.5km/h 70% 0.00in /  0mm 104 W/m2
11:44 38.1 °F /  3.4 °C 29.2 °F /  -1.6 °C 30.10in /  1019.2hPa SW 1.6mph /  2.6km/h 9mph /  14.5km/h 70% 0.00in /  0mm 113 W/m2
11:49 38.3 °F /  3.5 °C 29.1 °F /  -1.6 °C 30.09in /  1018.8hPa SSW 2.3mph /  3.7km/h 9mph /  14.5km/h 69.4% 0.00in /  0mm 121 W/m2
11:54 38.4 °F /  3.6 °C 28.9 °F /  -1.7 °C 30.08in /  1018.5hPa SW 3.5mph /  5.6km/h 12mph /  19.3km/h 68.3% 0.00in /  0mm 142 W/m2
11:59 38.7 °F /  3.7 °C 28.9 °F /  -1.7 °C 30.08in /  1018.5hPa SSW 2.7mph /  4.3km/h 12mph /  19.3km/h 67.8% 0.00in /  0mm 120 W/m2
12:00 38.7 °F /  3.7 °C 29.1 °F /  -1.6 °C 30.06in /  1017.8hPa SW 7.5mph /  12.1km/h 12mph /  19.3km/h 68% 0.00in /  0mm 120 W/m2
12:09 39 °F /  3.9 °C 29 °F /  -1.7 °C 30.05in /  1017.5hPa SW 4.8mph /  7.7km/h 11mph /  17.7km/h 67% 0.00in /  0mm 258 W/m2
12:14 39.3 °F /  4.1 °C 28.9 °F /  -1.7 °C 30.06in /  1017.8hPa SW 3.1mph /  5km/h 12mph /  19.3km/h 66% 0.00in /  0mm 229 W/m2
12:19 39.5 °F /  4.2 °C 29.2 °F /  -1.6 °C 30.05in /  1017.5hPa SW 3.5mph /  5.6km/h 12mph /  19.3km/h 66.2% 0.00in /  0mm 151 W/m2
12:24 39.6 °F /  4.2 °C 29.1 °F /  -1.6 °C 30.05in /  1017.5hPa SW 3.7mph /  6km/h 12mph /  19.3km/h 65.8% 0.00in /  0mm 144 W/m2
12:29 39.6 °F /  4.2 °C 29.3 °F /  -1.5 °C 30.04in /  1017.2hPa SW 4.5mph /  7.2km/h 12mph /  19.3km/h 66.1% 0.00in /  0mm 130 W/m2
12:34 39.6 °F /  4.2 °C 29.6 °F /  -1.3 °C 30.04in /  1017.2hPa SW 3.7mph /  6km/h 12mph /  19.3km/h 67% 0.00in /  0mm 127 W/m2
12:39 39.5 °F /  4.2 °C 29.6 °F /  -1.3 °C 30.04in /  1017.2hPa SW 3.1mph /  5km/h 17mph /  27.4km/h 67.2% 0.00in /  0mm 114 W/m2
12:44 39.5 °F /  4.2 °C 29.8 °F /  -1.2 °C 30.03in /  1016.8hPa SW 3.2mph /  5.1km/h 17mph /  27.4km/h 68% 0.00in /  0mm 158 W/m2
12:49 39.5 °F /  4.2 °C 30.2 °F /  -1 °C 30.03in /  1016.8hPa SW 3.2mph /  5.1km/h 17mph /  27.4km/h 69.1% 0.00in /  0mm 163 W/m2
12:54 39.4 °F /  4.1 °C 30.4 °F /  -0.9 °C 30.03in /  1016.8hPa SW 4.2mph /  6.8km/h 17mph /  27.4km/h 69.8% 0.00in /  0mm 121 W/m2
12:59 39.3 °F /  4.1 °C 30.3 °F /  -0.9 °C 30.03in /  1016.8hPa SW 5mph /  8km/h 17mph /  27.4km/h 69.9% 0.00in /  0mm 107 W/m2
13:04 39.2 °F /  4 °C 30.5 °F /  -0.8 °C 30.03in /  1016.8hPa SSW 2.9mph /  4.7km/h 17mph /  27.4km/h 70.6% 0.00in /  0mm 104 W/m2
13:09 39.1 °F /  3.9 °C 30.7 °F /  -0.7 °C 30.03in /  1016.8hPa SSW 2.9mph /  4.7km/h 10mph /  16.1km/h 71.7% 0.00in /  0mm 74 W/m2
13:14 38.9 °F /  3.8 °C 30.9 °F /  -0.6 °C 30.02in /  1016.5hPa SW 2.2mph /  3.5km/h 10mph /  16.1km/h 72.5% 0.00in /  0mm 84 W/m2
13:19 38.8 °F /  3.8 °C 31.1 °F /  -0.5 °C 30.02in /  1016.5hPa SSW 2.3mph /  3.7km/h 10mph /  16.1km/h 73.5% 0.00in /  0mm 72 W/m2
13:24 38.6 °F /  3.7 °C 31.1 °F /  -0.5 °C 30.02in /  1016.5hPa SW 2.3mph /  3.7km/h 10mph /  16.1km/h 74% 0.00in /  0mm 49 W/m2
13:29 38.5 °F /  3.6 °C 31.2 °F /  -0.4 °C 30.02in /  1016.5hPa SSW 1.6mph /  2.6km/h 10mph /  16.1km/h 74.8% 0.00in /  0mm 46 W/m2
13:34 38.4 °F /  3.6 °C 31.2 °F /  -0.4 °C 30.02in /  1016.5hPa SW 2.7mph /  4.3km/h 10mph /  16.1km/h 75% 0.00in /  0mm 42 W/m2
13:39 38.3 °F /  3.5 °C 31.2 °F /  -0.4 °C 30.02in /  1016.5hPa SSW 2mph /  3.2km/h 9mph /  14.5km/h 75.2% 0.00in /  0mm 42 W/m2
13:44 38.3 °F /  3.5 °C 31.4 °F /  -0.3 °C 30.01in /  1016.1hPa SW 1.7mph /  2.7km/h 10mph /  16.1km/h 75.9% 0.00in /  0mm 42 W/m2
13:49 38.3 °F /  3.5 °C 31.4 °F /  -0.3 °C 30.01in /  1016.1hPa SSW 1.2mph /  1.9km/h 10mph /  16.1km/h 76% 0.00in /  0mm 69 W/m2
13:54 38.3 °F /  3.5 °C 31.4 °F /  -0.3 °C 30.00in /  1015.8hPa SSW 1.9mph /  3.1km/h 10mph /  16.1km/h 76% 0.00in /  0mm 70 W/m2
13:59 38.4 °F /  3.6 °C 31.5 °F /  -0.3 °C 30.00in /  1015.8hPa SSW 1.6mph /  2.6km/h 10mph /  16.1km/h 76% 0.00in /  0mm 47 W/m2
14:04 38.4 °F /  3.6 °C 31.5 °F /  -0.3 °C 29.99in /  1015.5hPa SSW 0.9mph /  1.4km/h 10mph /  16.1km/h 76.1% 0.00in /  0mm 56 W/m2
14:09 38.4 °F /  3.6 °C 31.8 °F /  -0.1 °C 29.99in /  1015.5hPa SW 2.2mph /  3.5km/h 10mph /  16.1km/h 77% 0.00in /  0mm 69 W/m2
14:14 38.4 °F /  3.6 °C 31.9 °F /  -0.1 °C 29.99in /  1015.5hPa SW 2.3mph /  3.7km/h 10mph /  16.1km/h 77.1% 0.00in /  0mm 74 W/m2
14:19 38.5 °F /  3.6 °C 32.2 °F /  0.1 °C 29.99in /  1015.5hPa SW 4.4mph /  7.1km/h 12mph /  19.3km/h 78% 0.00in /  0mm 74 W/m2
14:24 38.5 °F /  3.6 °C 32.3 °F /  0.2 °C 29.99in /  1015.5hPa SW 2mph /  3.2km/h 12mph /  19.3km/h 78% 0.00in /  0mm 88 W/m2
14:29 38.5 °F /  3.6 °C 32.3 °F /  0.2 °C 29.98in /  1015.1hPa SW 2.3mph /  3.7km/h 12mph /  19.3km/h 78% 0.00in /  0mm 81 W/m2
14:34 38.6 °F /  3.7 °C 32.3 °F /  0.2 °C 29.97in /  1014.8hPa SW 1.8mph /  2.9km/h 12mph /  19.3km/h 78% 0.00in /  0mm 63 W/m2
14:39 38.6 °F /  3.7 °C 32.3 °F /  0.2 °C 29.97in /  1014.8hPa SW 2.8mph /  4.5km/h 14mph /  22.5km/h 78% 0.00in /  0mm 77 W/m2
14:44 38.7 °F /  3.7 °C 32.3 °F /  0.2 °C 29.96in /  1014.4hPa SSW 1.6mph /  2.6km/h 14mph /  22.5km/h 77.6% 0.00in /  0mm 76 W/m2
14:49 38.8 °F /  3.8 °C 32.2 °F /  0.1 °C 29.96in /  1014.4hPa SW 1.4mph /  2.3km/h 14mph /  22.5km/h 77% 0.00in /  0mm 35 W/m2
14:54 38.9 °F /  3.8 °C 32.3 °F /  0.2 °C 29.96in /  1014.4hPa SW 0.8mph /  1.3km/h 14mph /  22.5km/h 77% 0.00in /  0mm 33 W/m2
14:59 38.9 °F /  3.8 °C 32.4 °F /  0.2 °C 29.96in /  1014.4hPa SW 1.3mph /  2.1km/h 14mph /  22.5km/h 77.2% 0.00in /  0mm 33 W/m2
15:04 38.9 °F /  3.8 °C 32.7 °F /  0.4 °C 29.97in /  1014.8hPa SW 0.6mph /  1km/h 14mph /  22.5km/h 78% 0.00in /  0mm 33 W/m2
15:09 38.9 °F /  3.8 °C 32.9 °F /  0.5 °C 29.96in /  1014.4hPa SW 0.4mph /  0.6km/h 3mph /  4.8km/h 78.8% 0.00in /  0mm 32 W/m2
15:14 38.9 °F /  3.8 °C 32.9 °F /  0.5 °C 29.96in /  1014.4hPa SW 0.2mph /  0.3km/h 3mph /  4.8km/h 79% 0.00in /  0mm 26 W/m2
15:19 38.8 °F /  3.8 °C 33.1 °F /  0.6 °C 29.96in /  1014.4hPa SW 1.2mph /  1.9km/h 7mph /  11.3km/h 79.8% 0.00in /  0mm 21 W/m2
15:24 38.7 °F /  3.7 °C 33.1 °F /  0.6 °C 29.96in /  1014.4hPa SW 0.8mph /  1.3km/h 7mph /  11.3km/h 80% 0.00in /  0mm 12 W/m2
15:29 38.7 °F /  3.7 °C 33.1 °F /  0.6 °C 29.96in /  1014.4hPa SW 0.2mph /  0.3km/h 7mph /  11.3km/h 80% 0.00in /  0mm 12 W/m2
15:34 38.6 °F /  3.7 °C 33.1 °F /  0.6 °C 29.96in /  1014.4hPa Calm   7mph /  11.3km/h 80.5% 0.00in /  0mm 11 W/m2
15:39 38.6 °F /  3.7 °C 33.3 °F /  0.7 °C 29.96in /  1014.4hPa SW 1.4mph /  2.3km/h 8mph /  12.9km/h 81% 0.00in /  0mm 14 W/m2
15:44 38.6 °F /  3.7 °C 33.2 °F /  0.7 °C 29.96in /  1014.4hPa SW 0.5mph /  0.8km/h 8mph /  12.9km/h 81% 0.00in /  0mm 14 W/m2
15:49 38.5 °F /  3.6 °C 33.2 °F /  0.7 °C 29.95in /  1014.1hPa SW 0.7mph /  1.1km/h 8mph /  12.9km/h 81% 0.00in /  0mm 12 W/m2
15:54 38.5 °F /  3.6 °C 33.3 °F /  0.7 °C 29.95in /  1014.1hPa SW 0.8mph /  1.3km/h 8mph /  12.9km/h 81.2% 0.00in /  0mm 11 W/m2
15:59 38.6 °F /  3.7 °C 33.6 °F /  0.9 °C 29.95in /  1014.1hPa SW 2.2mph /  3.5km/h 8mph /  12.9km/h 82% 0.00in /  0mm 7 W/m2
16:00 38.6 °F /  3.7 °C 33.6 °F /  0.9 °C 29.95in /  1014.1hPa SW 1mph /  1.6km/h 8mph /  12.9km/h 82% 0.00in /  0mm 5 W/m2
16:09 38.5 °F /  3.6 °C 33.5 °F /  0.8 °C 29.95in /  1014.1hPa SW 1.4mph /  2.3km/h 5mph /  8km/h 82% 0.00in /  0mm 5 W/m2
16:14 38.5 °F /  3.6 °C 33.5 °F /  0.8 °C 29.95in /  1014.1hPa SW 0.7mph /  1.1km/h 6mph /  9.7km/h 82% 0.00in /  0mm 0 W/m2
16:19 38.5 °F /  3.6 °C 33.6 °F /  0.9 °C 29.95in /  1014.1hPa SW 1.8mph /  2.9km/h 6mph /  9.7km/h 82.4% 0.00in /  0mm 0 W/m2
16:24 38.5 °F /  3.6 °C 33.8 °F /  1 °C 29.94in /  1013.8hPa SW 1.3mph /  2.1km/h 6mph /  9.7km/h 83% 0.00in /  0mm 0 W/m2
16:29 38.5 °F /  3.6 °C 33.8 °F /  1 °C 29.94in /  1013.8hPa SW 0.7mph /  1.1km/h 6mph /  9.7km/h 83% 0.00in /  0mm 0 W/m2
16:34 38.4 °F /  3.6 °C 33.7 °F /  0.9 °C 29.94in /  1013.8hPa SW 1.3mph /  2.1km/h 6mph /  9.7km/h 83% 0.00in /  0mm 0 W/m2
16:39 38.4 °F /  3.6 °C 33.7 °F /  0.9 °C 29.94in /  1013.8hPa SW 1.5mph /  2.4km/h 4mph /  6.4km/h 83% 0.00in /  0mm 0 W/m2
16:44 38.3 °F /  3.5 °C 33.6 °F /  0.9 °C 29.94in /  1013.8hPa SW 1.5mph /  2.4km/h 5mph /  8km/h 83% 0.00in /  0mm 0 W/m2
16:49 38.3 °F /  3.5 °C 33.6 °F /  0.9 °C 29.94in /  1013.8hPa SW 2.1mph /  3.4km/h 8mph /  12.9km/h 83.1% 0.00in /  0mm 0 W/m2
16:54 38.2 °F /  3.4 °C 33.8 °F /  1 °C 29.94in /  1013.8hPa SW 1.8mph /  2.9km/h 8mph /  12.9km/h 84% 0.00in /  0mm 0 W/m2
16:59 38.2 °F /  3.4 °C 33.8 °F /  1 °C 29.94in /  1013.8hPa SW 1.6mph /  2.6km/h 12mph /  19.3km/h 84% 0.00in /  0mm 0 W/m2
17:04 38.2 °F /  3.4 °C 33.8 °F /  1 °C 29.95in /  1014.1hPa SW 2.1mph /  3.4km/h 12mph /  19.3km/h 84% 0.00in /  0mm 0 W/m2
17:09 38.2 °F /  3.4 °C 33.9 °F /  1.1 °C 29.94in /  1013.8hPa WSW 1.7mph /  2.7km/h 11mph /  17.7km/h 84.6% 0.00in /  0mm 0 W/m2
17:14 38.1 °F /  3.4 °C 34 °F /  1.1 °C 29.94in /  1013.8hPa WSW 0.9mph /  1.4km/h 11mph /  17.7km/h 85% 0.00in /  0mm 0 W/m2
17:19 38 °F /  3.3 °C 33.9 °F /  1.1 °C 29.94in /  1013.8hPa WSW 1.3mph /  2.1km/h 11mph /  17.7km/h 85% 0.00in /  0mm 0 W/m2
17:24 37.9 °F /  3.3 °C 34 °F /  1.1 °C 29.94in /  1013.8hPa WSW 1.3mph /  2.1km/h 11mph /  17.7km/h 85.6% 0.00in /  0mm 0 W/m2
17:29 37.8 °F /  3.2 °C 34 °F /  1.1 °C 29.94in /  1013.8hPa WSW 0.4mph /  0.6km/h 11mph /  17.7km/h 86% 0.00in /  0mm 0 W/m2
17:34 37.8 °F /  3.2 °C 34.1 °F /  1.2 °C 29.93in /  1013.4hPa WSW 0.1mph /  0.2km/h 11mph /  17.7km/h 86.4% 0.00in /  0mm 0 W/m2
17:39 37.7 °F /  3.2 °C 34.2 °F /  1.2 °C 29.93in /  1013.4hPa WSW 0.2mph /  0.3km/h 3mph /  4.8km/h 87% 0.00in /  0mm 0 W/m2
17:44 37.6 °F /  3.1 °C 34.2 °F /  1.2 °C 29.92in /  1013.1hPa Calm   3mph /  4.8km/h 87.3% 0.00in /  0mm 0 W/m2
17:49 37.5 °F /  3.1 °C 34.3 °F /  1.3 °C 29.93in /  1013.4hPa WSW 0.6mph /  1km/h 3mph /  4.8km/h 88% 0.00in /  0mm 0 W/m2
17:54 37.5 °F /  3.1 °C 34.3 °F /  1.3 °C 29.92in /  1013.1hPa WSW 0.1mph /  0.2km/h 3mph /  4.8km/h 88% 0.00in /  0mm 0 W/m2
17:59 37.4 °F /  3 °C 34.5 °F /  1.4 °C 29.92in /  1013.1hPa WSW 1.4mph /  2.3km/h 5mph /  8km/h 89% 0.00in /  0mm 0 W/m2
18:04 37.4 °F /  3 °C 34.5 °F /  1.4 °C 29.92in /  1013.1hPa SW 1.4mph /  2.3km/h 5mph /  8km/h 89% 0.00in /  0mm 0 W/m2
18:09 37.4 °F /  3 °C 34.5 °F /  1.4 °C 29.93in /  1013.4hPa SW 0.5mph /  0.8km/h 5mph /  8km/h 89.4% 0.00in /  0mm 0 W/m2
18:14 37.3 °F /  2.9 °C 34.6 °F /  1.4 °C 29.92in /  1013.1hPa SW 0.7mph /  1.1km/h 5mph /  8km/h 90% 0.00in /  0mm 0 W/m2
18:19 37.3 °F /  2.9 °C 34.6 °F /  1.4 °C 29.92in /  1013.1hPa SW 1.3mph /  2.1km/h 5mph /  8km/h 90% 0.00in /  0mm 0 W/m2
18:24 37.2 °F /  2.9 °C 34.6 °F /  1.4 °C 29.91in /  1012.8hPa SW 0.8mph /  1.3km/h 5mph /  8km/h 90% 0.00in /  0mm 0 W/m2
18:29 37.2 °F /  2.9 °C 34.7 °F /  1.5 °C 29.91in /  1012.8hPa SW 0.3mph /  0.5km/h 5mph /  8km/h 90.7% 0.00in /  0mm 0 W/m2
18:34 37.1 °F /  2.8 °C 34.8 °F /  1.6 °C 29.91in /  1012.8hPa SW 0.8mph /  1.3km/h 5mph /  8km/h 91% 0.00in /  0mm 0 W/m2
18:39 37.1 °F /  2.8 °C 34.7 °F /  1.5 °C 29.91in /  1012.8hPa SW 0.5mph /  0.8km/h 4mph /  6.4km/h 91% 0.00in /  0mm 0 W/m2
18:44 37.1 °F /  2.8 °C 34.7 °F /  1.5 °C 29.92in /  1013.1hPa SW 0.3mph /  0.5km/h 4mph /  6.4km/h 91% 0.00in /  0mm 0 W/m2
18:49 37.1 °F /  2.8 °C 34.7 °F /  1.5 °C 29.91in /  1012.8hPa SW 0.3mph /  0.5km/h 4mph /  6.4km/h 91% 0.00in /  0mm 0 W/m2
18:54 37 °F /  2.8 °C 34.8 °F /  1.6 °C 29.91in /  1012.8hPa SW 0.1mph /  0.2km/h 4mph /  6.4km/h 91.7% 0.00in /  0mm 0 W/m2
18:59 37 °F /  2.8 °C 34.9 °F /  1.6 °C 29.91in /  1012.8hPa SW 0.2mph /  0.3km/h 4mph /  6.4km/h 92% 0.00in /  0mm 0 W/m2
19:04 37 °F /  2.8 °C 34.9 °F /  1.6 °C 29.90in /  1012.4hPa SW 0.2mph /  0.3km/h 4mph /  6.4km/h 92% 0.00in /  0mm 0 W/m2
19:09 37 °F /  2.8 °C 34.9 °F /  1.6 °C 29.90in /  1012.4hPa SW 0.3mph /  0.5km/h 3mph /  4.8km/h 92% 0.00in /  0mm 0 W/m2
19:14 37 °F /  2.8 °C 34.9 °F /  1.6 °C 29.90in /  1012.4hPa Calm   3mph /  4.8km/h 92% 0.00in /  0mm 0 W/m2
19:19 37 °F /  2.8 °C 34.9 °F /  1.6 °C 29.90in /  1012.4hPa Calm   3mph /  4.8km/h 92% 0.00in /  0mm 0 W/m2
19:24 37 °F /  2.8 °C 34.9 °F /  1.6 °C 29.90in /  1012.4hPa SW 0.5mph /  0.8km/h 3mph /  4.8km/h 92% 0.00in /  0mm 0 W/m2
19:29 37.1 °F /  2.8 °C 35.1 °F /  1.7 °C 29.90in /  1012.4hPa Calm   3mph /  4.8km/h 92.6% 0.00in /  0mm 0 W/m2
19:34 37.1 °F /  2.8 °C 35.3 °F /  1.8 °C 29.90in /  1012.4hPa Calm   3mph /  4.8km/h 93% 0.00in /  0mm 0 W/m2
19:39 37.1 °F /  2.8 °C 35.2 °F /  1.8 °C 29.90in /  1012.4hPa SW 0.6mph /  1km/h 3mph /  4.8km/h 93% 0.00in /  0mm 0 W/m2
19:44 37.1 °F /  2.8 °C 35.3 °F /  1.8 °C 29.89in /  1012.1hPa SW 0.2mph /  0.3km/h 4mph /  6.4km/h 93% 0.00in /  0mm 0 W/m2
19:49 37.1 °F /  2.8 °C 35.3 °F /  1.8 °C 29.89in /  1012.1hPa SW 1.2mph /  1.9km/h 5mph /  8km/h 93% 0.00in /  0mm 0 W/m2
19:54 37.1 °F /  2.8 °C 35.3 °F /  1.8 °C 29.89in /  1012.1hPa SW 0.1mph /  0.2km/h 5mph /  8km/h 93% 0.00in /  0mm 0 W/m2
19:59 37.1 °F /  2.8 °C 35.3 °F /  1.8 °C 29.89in /  1012.1hPa SW 2mph /  3.2km/h 5mph /  8km/h 93% 0.00in /  0mm 0 W/m2
20:09 37.3 °F /  2.9 °C 35.5 °F /  1.9 °C 29.89in /  1012.1hPa SW 0.5mph /  0.8km/h 4mph /  6.4km/h 93% 0.00in /  0mm 0 W/m2
20:14 37.3 °F /  2.9 °C 35.5 °F /  1.9 °C 29.88in /  1011.7hPa SW 1.9mph /  3.1km/h 5mph /  8km/h 93% 0.00in /  0mm 0 W/m2
20:19 37.4 °F /  3 °C 35.5 °F /  1.9 °C 29.88in /  1011.7hPa SW 2.5mph /  4km/h 6mph /  9.7km/h 93% 0.00in /  0mm 0 W/m2
20:24 37.4 °F /  3 °C 35.7 °F /  2.1 °C 29.88in /  1011.7hPa SW 2mph /  3.2km/h 6mph /  9.7km/h 93.5% 0.00in /  0mm 0 W/m2
20:29 37.4 °F /  3 °C 35.6 °F /  2 °C 29.88in /  1011.7hPa SW 0.4mph /  0.6km/h 6mph /  9.7km/h 93% 0.00in /  0mm 0 W/m2
20:34 37.5 °F /  3.1 °C 35.7 °F /  2.1 °C 29.88in /  1011.7hPa SW 1.8mph /  2.9km/h 7mph /  11.3km/h 93.2% 0.00in /  0mm 0 W/m2
20:39 37.5 °F /  3.1 °C 35.9 °F /  2.2 °C 29.88in /  1011.7hPa SW 2.3mph /  3.7km/h 7mph /  11.3km/h 94% 0.00in /  0mm 0 W/m2
20:44 37.6 °F /  3.1 °C 36 °F /  2.2 °C 29.88in /  1011.7hPa SW 3.1mph /  5km/h 7mph /  11.3km/h 94% 0.00in /  0mm 0 W/m2
20:49 37.6 °F /  3.1 °C 36.1 °F /  2.3 °C 29.87in /  1011.4hPa SW 2mph /  3.2km/h 7mph /  11.3km/h 94% 0.00in /  0mm 0 W/m2
20:54 37.7 °F /  3.2 °C 36.1 °F /  2.3 °C 29.87in /  1011.4hPa SW 1.9mph /  3.1km/h 7mph /  11.3km/h 94% 0.00in /  0mm 0 W/m2
20:59 37.7 °F /  3.2 °C 36.1 °F /  2.3 °C 29.88in /  1011.7hPa SW 2mph /  3.2km/h 7mph /  11.3km/h 94% 0.00in /  0mm 0 W/m2
21:04 37.7 °F /  3.2 °C 36.1 °F /  2.3 °C 29.87in /  1011.4hPa SW 1.6mph /  2.6km/h 7mph /  11.3km/h 94% 0.00in /  0mm 0 W/m2
21:09 37.7 °F /  3.2 °C 36.1 °F /  2.3 °C 29.87in /  1011.4hPa SW 1.4mph /  2.3km/h 6mph /  9.7km/h 94% 0.00in /  0mm 0 W/m2
21:14 37.7 °F /  3.2 °C 36.1 °F /  2.3 °C 29.87in /  1011.4hPa SW 1.7mph /  2.7km/h 6mph /  9.7km/h 94% 0.00in /  0mm 0 W/m2
21:19 37.7 °F /  3.2 °C 36.1 °F /  2.3 °C 29.87in /  1011.4hPa SW 2.1mph /  3.4km/h 6mph /  9.7km/h 94% 0.00in /  0mm 0 W/m2
21:24 37.7 °F /  3.2 °C 36.1 °F /  2.3 °C 29.86in /  1011.1hPa SW 2.6mph /  4.2km/h 6mph /  9.7km/h 94% 0.00in /  0mm 0 W/m2
21:29 37.7 °F /  3.2 °C 36.1 °F /  2.3 °C 29.86in /  1011.1hPa SW 2mph /  3.2km/h 7mph /  11.3km/h 94% 0.00in /  0mm 0 W/m2
21:34 37.7 °F /  3.2 °C 36.2 °F /  2.3 °C 29.86in /  1011.1hPa SW 1mph /  1.6km/h 7mph /  11.3km/h 94% 0.00in /  0mm 0 W/m2
21:39 37.7 °F /  3.2 °C 36.2 °F /  2.3 °C 29.86in /  1011.1hPa SW 0.3mph /  0.5km/h 4mph /  6.4km/h 94% 0.00in /  0mm 0 W/m2
21:44 37.7 °F /  3.2 °C 36.1 °F /  2.3 °C 29.86in /  1011.1hPa SW 1.9mph /  3.1km/h 5mph /  8km/h 94% 0.00in /  0mm 0 W/m2
21:49 37.8 °F /  3.2 °C 36.2 °F /  2.3 °C 29.86in /  1011.1hPa SW 1.6mph /  2.6km/h 5mph /  8km/h 94% 0.00in /  0mm 0 W/m2
21:54 37.9 °F /  3.3 °C 36.3 °F /  2.4 °C 29.86in /  1011.1hPa SW 0.9mph /  1.4km/h 6mph /  9.7km/h 94% 0.00in /  0mm 0 W/m2
21:59 37.9 °F /  3.3 °C 36.3 °F /  2.4 °C 29.86in /  1011.1hPa SW 1.4mph /  2.3km/h 6mph /  9.7km/h 94% 0.00in /  0mm 0 W/m2
22:04 37.9 °F /  3.3 °C 36.3 °F /  2.4 °C 29.86in /  1011.1hPa WSW 1.4mph /  2.3km/h 9mph /  14.5km/h 94% 0.00in /  0mm 0 W/m2
22:09 37.9 °F /  3.3 °C 36.3 °F /  2.4 °C 29.86in /  1011.1hPa WSW 1.9mph /  3.1km/h 9mph /  14.5km/h 94% 0.00in /  0mm 0 W/m2
22:14 37.9 °F /  3.3 °C 36.4 °F /  2.4 °C 29.86in /  1011.1hPa WSW 2.6mph /  4.2km/h 10mph /  16.1km/h 94% 0.00in /  0mm 0 W/m2
22:19 38 °F /  3.3 °C 36.4 °F /  2.4 °C 29.86in /  1011.1hPa WSW 1.5mph /  2.4km/h 10mph /  16.1km/h 94% 0.00in /  0mm 0 W/m2
22:24 38 °F /  3.3 °C 36.4 °F /  2.4 °C 29.87in /  1011.4hPa WSW 1.8mph /  2.9km/h 10mph /  16.1km/h 94% 0.00in /  0mm 0 W/m2
22:29 38.1 °F /  3.4 °C 36.5 °F /  2.5 °C 29.87in /  1011.4hPa SW 2.9mph /  4.7km/h 12mph /  19.3km/h 94% 0.00in /  0mm 0 W/m2
22:34 38.2 °F /  3.4 °C 36.6 °F /  2.6 °C 29.86in /  1011.1hPa WSW 2.9mph /  4.7km/h 13mph /  20.9km/h 94% 0.00in /  0mm 0 W/m2
22:39 38.2 °F /  3.4 °C 36.5 °F /  2.5 °C 29.87in /  1011.4hPa WSW 2.1mph /  3.4km/h 13mph /  20.9km/h 93.4% 0.00in /  0mm 0 W/m2
22:44 38.2 °F /  3.4 °C 36.4 °F /  2.4 °C 29.87in /  1011.4hPa WSW 3.2mph /  5.1km/h 13mph /  20.9km/h 93% 0.00in /  0mm 0 W/m2
22:49 38.2 °F /  3.4 °C 36.4 °F /  2.4 °C 29.87in /  1011.4hPa WNW 3mph /  4.8km/h 13mph /  20.9km/h 93% 0.00in /  0mm 0 W/m2
22:54 38.2 °F /  3.4 °C 36.4 °F /  2.4 °C 29.87in /  1011.4hPa WSW 1.8mph /  2.9km/h 13mph /  20.9km/h 93% 0.00in /  0mm 0 W/m2
22:59 38.2 °F /  3.4 °C 36.4 °F /  2.4 °C 29.87in /  1011.4hPa WSW 1.3mph /  2.1km/h 13mph /  20.9km/h 93% 0.00in /  0mm 0 W/m2
23:00 38.2 °F /  3.4 °C 36.4 °F /  2.4 °C 29.87in /  1011.4hPa WSW 2mph /  3.2km/h 13mph /  20.9km/h 93% 0.00in /  0mm 0 W/m2
23:09 38.3 °F /  3.5 °C 36.4 °F /  2.4 °C 29.88in /  1011.7hPa West 0.5mph /  0.8km/h 6mph /  9.7km/h 93% 0.00in /  0mm 0 W/m2
23:14 38.3 °F /  3.5 °C 36.4 °F /  2.4 °C 29.88in /  1011.7hPa West 0.9mph /  1.4km/h 6mph /  9.7km/h 93% 0.00in /  0mm 0 W/m2
23:19 38.3 °F /  3.5 °C 36.5 °F /  2.5 °C 29.88in /  1011.7hPa West 2.7mph /  4.3km/h 6mph /  9.7km/h 93% 0.00in /  0mm 0 W/m2
23:24 38.3 °F /  3.5 °C 36.5 °F /  2.5 °C 29.88in /  1011.7hPa West 1.8mph /  2.9km/h 6mph /  9.7km/h 93% 0.00in /  0mm 0 W/m2
23:29 38.3 °F /  3.5 °C 36.5 °F /  2.5 °C 29.88in /  1011.7hPa West 2.1mph /  3.4km/h 7mph /  11.3km/h 93% 0.00in /  0mm 0 W/m2
23:34 38.3 °F /  3.5 °C 36.5 °F /  2.5 °C 29.88in /  1011.7hPa WNW 2.8mph /  4.5km/h 7mph /  11.3km/h 93% 0.00in /  0mm 0 W/m2
23:39 38.4 °F /  3.6 °C 36.6 °F /  2.6 °C 29.89in /  1012.1hPa WNW 6.4mph /  10.3km/h 16mph /  25.7km/h 93% 0.00in /  0mm 0 W/m2
23:44 38.5 °F /  3.6 °C 36.7 °F /  2.6 °C 29.89in /  1012.1hPa NW 4mph /  6.4km/h 16mph /  25.7km/h 93% 0.00in /  0mm 0 W/m2
23:49 38.4 °F /  3.6 °C 36.4 °F /  2.4 °C 29.89in /  1012.1hPa NW 5.7mph /  9.2km/h 16mph /  25.7km/h 92.4% 0.00in /  0mm 0 W/m2
23:54 38.2 °F /  3.4 °C 36 °F /  2.2 °C 29.89in /  1012.1hPa WNW 5.8mph /  9.3km/h 16mph /  25.7km/h 91.8% 0.00in /  0mm 0 W/m2
23:59 38 °F /  3.3 °C 35.5 °F /  1.9 °C 29.89in /  1012.1hPa NW 6.7mph /  10.8km/h 16mph /  25.7km/h 90.6% 0.00in /  0mm 0 W/m2
Hartford County Weather
Compliments of Weather Underground - 4 mb